sensor_id;sensor_type;location;lat;lon;timestamp;P1;durP1;ratioP1;P2;durP2;ratioP2
14030;SDS011;7090;49.436;8.490;2022-12-29T00:02:15;3.77;;;3.67;;
14030;SDS011;7090;49.436;8.490;2022-12-29T00:04:41;3.97;;;3.87;;
14030;SDS011;7090;49.436;8.490;2022-12-29T00:07:07;5.87;;;4.50;;
14030;SDS011;7090;49.436;8.490;2022-12-29T00:09:33;4.90;;;4.63;;
14030;SDS011;7090;49.436;8.490;2022-12-29T00:12:00;4.43;;;4.23;;
14030;SDS011;7090;49.436;8.490;2022-12-29T00:14:27;4.60;;;4.30;;
14030;SDS011;7090;49.436;8.490;2022-12-29T00:17:12;5.10;;;4.70;;
14030;SDS011;7090;49.436;8.490;2022-12-29T00:19:38;4.70;;;4.40;;
14030;SDS011;7090;49.436;8.490;2022-12-29T00:22:22;4.70;;;4.30;;
14030;SDS011;7090;49.436;8.490;2022-12-29T00:25:08;5.03;;;4.63;;
14030;SDS011;7090;49.436;8.490;2022-12-29T00:27:56;4.53;;;4.23;;
14030;SDS011;7090;49.436;8.490;2022-12-29T00:30:40;4.70;;;4.40;;
14030;SDS011;7090;49.436;8.490;2022-12-29T00:33:26;4.40;;;4.10;;
14030;SDS011;7090;49.436;8.490;2022-12-29T00:39:29;4.23;;;4.03;;
14030;SDS011;7090;49.436;8.490;2022-12-29T00:41:51;5.10;;;4.80;;
14030;SDS011;7090;49.436;8.490;2022-12-29T00:44:35;4.83;;;4.40;;
14030;SDS011;7090;49.436;8.490;2022-12-29T00:47:01;4.23;;;4.03;;
14030;SDS011;7090;49.436;8.490;2022-12-29T00:49:29;5.10;;;4.80;;
14030;SDS011;7090;49.436;8.490;2022-12-29T00:51:57;4.00;;;3.70;;
14030;SDS011;7090;49.436;8.490;2022-12-29T00:54:28;4.87;;;4.53;;
14030;SDS011;7090;49.436;8.490;2022-12-29T00:56:55;4.57;;;4.17;;
14030;SDS011;7090;49.436;8.490;2022-12-29T00:59:21;4.17;;;3.97;;
14030;SDS011;7090;49.436;8.490;2022-12-29T01:01:49;4.10;;;3.90;;
14030;SDS011;7090;49.436;8.490;2022-12-29T01:04:15;4.10;;;4.00;;
14030;SDS011;7090;49.436;8.490;2022-12-29T01:06:41;4.63;;;4.33;;
14030;SDS011;7090;49.436;8.490;2022-12-29T01:09:07;4.93;;;4.63;;
14030;SDS011;7090;49.436;8.490;2022-12-29T01:11:52;4.30;;;4.10;;
14030;SDS011;7090;49.436;8.490;2022-12-29T01:14:18;4.50;;;4.20;;
14030;SDS011;7090;49.436;8.490;2022-12-29T01:16:44;4.53;;;4.23;;
14030;SDS011;7090;49.436;8.490;2022-12-29T01:19:10;4.87;;;4.53;;
14030;SDS011;7090;49.436;8.490;2022-12-29T01:21:36;5.30;;;4.20;;
14030;SDS011;7090;49.436;8.490;2022-12-29T01:24:01;4.50;;;4.30;;
14030;SDS011;7090;49.436;8.490;2022-12-29T01:26:27;4.87;;;4.57;;
14030;SDS011;7090;49.436;8.490;2022-12-29T01:28:53;3.90;;;3.70;;
14030;SDS011;7090;49.436;8.490;2022-12-29T01:31:18;4.20;;;4.00;;
14030;SDS011;7090;49.436;8.490;2022-12-29T01:33:44;4.60;;;4.20;;
14030;SDS011;7090;49.436;8.490;2022-12-29T01:36:11;4.63;;;4.00;;
14030;SDS011;7090;49.436;8.490;2022-12-29T01:38:38;3.90;;;3.70;;
14030;SDS011;7090;49.436;8.490;2022-12-29T01:41:05;4.40;;;4.20;;
14030;SDS011;7090;49.436;8.490;2022-12-29T01:43:50;4.17;;;3.93;;
14030;SDS011;7090;49.436;8.490;2022-12-29T01:46:31;3.80;;;3.63;;
14030;SDS011;7090;49.436;8.490;2022-12-29T01:51:33;4.20;;;4.00;;
14030;SDS011;7090;49.436;8.490;2022-12-29T01:54:04;4.37;;;4.07;;
14030;SDS011;7090;49.436;8.490;2022-12-29T01:56:35;4.50;;;4.17;;
14030;SDS011;7090;49.436;8.490;2022-12-29T01:59:03;4.67;;;4.37;;
14030;SDS011;7090;49.436;8.490;2022-12-29T02:01:33;4.37;;;4.10;;
14030;SDS011;7090;49.436;8.490;2022-12-29T02:03:59;4.60;;;4.40;;
14030;SDS011;7090;49.436;8.490;2022-12-29T02:06:29;4.80;;;4.40;;
14030;SDS011;7090;49.436;8.490;2022-12-29T02:08:58;5.23;;;4.53;;
14030;SDS011;7090;49.436;8.490;2022-12-29T02:11:25;4.50;;;4.30;;
14030;SDS011;7090;49.436;8.490;2022-12-29T02:13:52;4.30;;;4.10;;
14030;SDS011;7090;49.436;8.490;2022-12-29T02:16:26;4.50;;;4.30;;
14030;SDS011;7090;49.436;8.490;2022-12-29T02:24:31;5.63;;;4.60;;
14030;SDS011;7090;49.436;8.490;2022-12-29T02:27:34;4.70;;;4.50;;
14030;SDS011;7090;49.436;8.490;2022-12-29T02:33:06;4.60;;;4.33;;
14030;SDS011;7090;49.436;8.490;2022-12-29T02:35:54;4.83;;;4.63;;
14030;SDS011;7090;49.436;8.490;2022-12-29T02:44:10;4.70;;;4.50;;
14030;SDS011;7090;49.436;8.490;2022-12-29T02:46:46;4.80;;;4.60;;
14030;SDS011;7090;49.436;8.490;2022-12-29T02:49:23;5.43;;;5.13;;
14030;SDS011;7090;49.436;8.490;2022-12-29T02:52:03;5.30;;;5.00;;
14030;SDS011;7090;49.436;8.490;2022-12-29T02:54:32;5.20;;;4.90;;
14030;SDS011;7090;49.436;8.490;2022-12-29T02:59:52;7.03;;;4.60;;
14030;SDS011;7090;49.436;8.490;2022-12-29T03:19:00;4.53;;;4.23;;
14030;SDS011;7090;49.436;8.490;2022-12-29T03:21:39;4.50;;;4.30;;
14030;SDS011;7090;49.436;8.490;2022-12-29T03:24:28;4.37;;;4.17;;
14030;SDS011;7090;49.436;8.490;2022-12-29T03:26:58;4.60;;;4.30;;
14030;SDS011;7090;49.436;8.490;2022-12-29T03:29:26;4.20;;;4.00;;
14030;SDS011;7090;49.436;8.490;2022-12-29T03:31:54;4.10;;;3.90;;
14030;SDS011;7090;49.436;8.490;2022-12-29T03:34:21;4.40;;;4.20;;
14030;SDS011;7090;49.436;8.490;2022-12-29T03:36:57;4.33;;;4.13;;
14030;SDS011;7090;49.436;8.490;2022-12-29T03:39:27;4.10;;;3.90;;
14030;SDS011;7090;49.436;8.490;2022-12-29T03:42:00;4.30;;;4.10;;
14030;SDS011;7090;49.436;8.490;2022-12-29T03:44:40;4.40;;;4.20;;
14030;SDS011;7090;49.436;8.490;2022-12-29T03:47:09;4.70;;;4.40;;
14030;SDS011;7090;49.436;8.490;2022-12-29T03:49:36;4.50;;;4.30;;
14030;SDS011;7090;49.436;8.490;2022-12-29T03:52:02;4.17;;;3.97;;
14030;SDS011;7090;49.436;8.490;2022-12-29T03:54:29;4.33;;;4.13;;
14030;SDS011;7090;49.436;8.490;2022-12-29T03:56:55;4.43;;;4.20;;
14030;SDS011;7090;49.436;8.490;2022-12-29T03:59:20;4.50;;;4.30;;
14030;SDS011;7090;49.436;8.490;2022-12-29T04:01:46;4.73;;;4.30;;
14030;SDS011;7090;49.436;8.490;2022-12-29T04:04:11;4.87;;;4.57;;
14030;SDS011;7090;49.436;8.490;2022-12-29T04:06:37;4.37;;;4.17;;
14030;SDS011;7090;49.436;8.490;2022-12-29T04:09:03;4.03;;;3.83;;
14030;SDS011;7090;49.436;8.490;2022-12-29T04:11:29;4.33;;;4.13;;
14030;SDS011;7090;49.436;8.490;2022-12-29T04:13:54;4.83;;;4.63;;
14030;SDS011;7090;49.436;8.490;2022-12-29T04:16:20;4.63;;;4.23;;
14030;SDS011;7090;49.436;8.490;2022-12-29T04:18:46;4.37;;;4.17;;
14030;SDS011;7090;49.436;8.490;2022-12-29T04:21:11;4.03;;;3.93;;
14030;SDS011;7090;49.436;8.490;2022-12-29T04:23:37;4.30;;;4.10;;
14030;SDS011;7090;49.436;8.490;2022-12-29T04:26:03;4.00;;;3.70;;
14030;SDS011;7090;49.436;8.490;2022-12-29T04:28:31;4.30;;;3.90;;
14030;SDS011;7090;49.436;8.490;2022-12-29T04:30:57;3.67;;;3.57;;
14030;SDS011;7090;49.436;8.490;2022-12-29T04:33:23;3.90;;;3.73;;
14030;SDS011;7090;49.436;8.490;2022-12-29T04:35:49;4.30;;;4.00;;
14030;SDS011;7090;49.436;8.490;2022-12-29T04:38:15;3.90;;;3.77;;
14030;SDS011;7090;49.436;8.490;2022-12-29T04:40:42;3.87;;;3.77;;
14030;SDS011;7090;49.436;8.490;2022-12-29T04:43:08;4.23;;;4.03;;
14030;SDS011;7090;49.436;8.490;2022-12-29T04:45:34;4.13;;;3.87;;
14030;SDS011;7090;49.436;8.490;2022-12-29T04:48:00;4.10;;;3.90;;
14030;SDS011;7090;49.436;8.490;2022-12-29T04:50:26;3.92;;;3.80;;
14030;SDS011;7090;49.436;8.490;2022-12-29T04:52:51;4.03;;;3.90;;
14030;SDS011;7090;49.436;8.490;2022-12-29T04:55:17;4.37;;;4.17;;
14030;SDS011;7090;49.436;8.490;2022-12-29T04:57:43;4.57;;;4.40;;
14030;SDS011;7090;49.436;8.490;2022-12-29T05:00:08;4.53;;;4.27;;
14030;SDS011;7090;49.436;8.490;2022-12-29T05:02:35;4.20;;;4.10;;
14030;SDS011;7090;49.436;8.490;2022-12-29T05:05:01;4.60;;;4.40;;
14030;SDS011;7090;49.436;8.490;2022-12-29T05:07:27;4.37;;;4.17;;
14030;SDS011;7090;49.436;8.490;2022-12-29T05:09:52;4.43;;;4.20;;
14030;SDS011;7090;49.436;8.490;2022-12-29T05:12:18;4.93;;;4.57;;
14030;SDS011;7090;49.436;8.490;2022-12-29T05:14:43;4.47;;;4.23;;
14030;SDS011;7090;49.436;8.490;2022-12-29T05:17:09;4.33;;;4.03;;
14030;SDS011;7090;49.436;8.490;2022-12-29T05:19:34;4.53;;;4.33;;
14030;SDS011;7090;49.436;8.490;2022-12-29T05:22:00;4.10;;;4.00;;
14030;SDS011;7090;49.436;8.490;2022-12-29T05:24:26;4.70;;;4.30;;
14030;SDS011;7090;49.436;8.490;2022-12-29T05:26:51;4.27;;;4.00;;
14030;SDS011;7090;49.436;8.490;2022-12-29T05:29:17;4.27;;;4.17;;
14030;SDS011;7090;49.436;8.490;2022-12-29T05:31:42;4.17;;;3.97;;
14030;SDS011;7090;49.436;8.490;2022-12-29T05:34:09;4.67;;;4.47;;
14030;SDS011;7090;49.436;8.490;2022-12-29T05:36:36;4.40;;;4.20;;
14030;SDS011;7090;49.436;8.490;2022-12-29T05:39:02;4.50;;;4.30;;
14030;SDS011;7090;49.436;8.490;2022-12-29T05:41:27;4.63;;;4.37;;
14030;SDS011;7090;49.436;8.490;2022-12-29T05:43:53;4.20;;;4.10;;
14030;SDS011;7090;49.436;8.490;2022-12-29T05:46:19;4.40;;;4.20;;
14030;SDS011;7090;49.436;8.490;2022-12-29T05:48:44;4.20;;;4.00;;
14030;SDS011;7090;49.436;8.490;2022-12-29T05:51:10;4.47;;;4.20;;
14030;SDS011;7090;49.436;8.490;2022-12-29T05:53:35;4.30;;;4.00;;
14030;SDS011;7090;49.436;8.490;2022-12-29T05:56:01;4.10;;;3.90;;
14030;SDS011;7090;49.436;8.490;2022-12-29T05:58:27;4.23;;;4.03;;
14030;SDS011;7090;49.436;8.490;2022-12-29T06:00:52;4.77;;;3.90;;
14030;SDS011;7090;49.436;8.490;2022-12-29T06:03:18;4.23;;;3.93;;
14030;SDS011;7090;49.436;8.490;2022-12-29T06:05:44;3.87;;;3.73;;
14030;SDS011;7090;49.436;8.490;2022-12-29T06:08:11;4.57;;;4.27;;
14030;SDS011;7090;49.436;8.490;2022-12-29T06:10:36;4.13;;;3.97;;
14030;SDS011;7090;49.436;8.490;2022-12-29T06:13:02;4.53;;;4.23;;
14030;SDS011;7090;49.436;8.490;2022-12-29T06:15:30;4.30;;;4.10;;
14030;SDS011;7090;49.436;8.490;2022-12-29T06:17:58;4.50;;;4.30;;
14030;SDS011;7090;49.436;8.490;2022-12-29T06:20:24;4.50;;;4.30;;
14030;SDS011;7090;49.436;8.490;2022-12-29T06:22:50;3.90;;;3.70;;
14030;SDS011;7090;49.436;8.490;2022-12-29T06:25:15;4.50;;;4.30;;
14030;SDS011;7090;49.436;8.490;2022-12-29T06:27:41;3.77;;;3.67;;
14030;SDS011;7090;49.436;8.490;2022-12-29T06:30:08;4.03;;;3.83;;
14030;SDS011;7090;49.436;8.490;2022-12-29T06:32:34;4.30;;;4.10;;
14030;SDS011;7090;49.436;8.490;2022-12-29T06:35:00;3.87;;;3.73;;
14030;SDS011;7090;49.436;8.490;2022-12-29T06:37:27;4.00;;;3.90;;
14030;SDS011;7090;49.436;8.490;2022-12-29T06:39:52;4.30;;;4.10;;
14030;SDS011;7090;49.436;8.490;2022-12-29T06:42:18;4.80;;;4.50;;
14030;SDS011;7090;49.436;8.490;2022-12-29T06:44:43;4.40;;;4.10;;
14030;SDS011;7090;49.436;8.490;2022-12-29T06:47:09;4.72;;;4.43;;
14030;SDS011;7090;49.436;8.490;2022-12-29T06:49:35;3.97;;;3.77;;
14030;SDS011;7090;49.436;8.490;2022-12-29T06:52:00;4.20;;;4.00;;
14030;SDS011;7090;49.436;8.490;2022-12-29T06:54:29;3.93;;;3.73;;
14030;SDS011;7090;49.436;8.490;2022-12-29T06:56:55;4.37;;;3.93;;
14030;SDS011;7090;49.436;8.490;2022-12-29T06:59:20;4.10;;;3.90;;
14030;SDS011;7090;49.436;8.490;2022-12-29T07:01:46;4.20;;;3.90;;
14030;SDS011;7090;49.436;8.490;2022-12-29T07:04:11;4.20;;;3.90;;
14030;SDS011;7090;49.436;8.490;2022-12-29T07:06:37;3.90;;;3.70;;
14030;SDS011;7090;49.436;8.490;2022-12-29T07:09:03;3.70;;;3.60;;
14030;SDS011;7090;49.436;8.490;2022-12-29T07:11:29;4.03;;;3.77;;
14030;SDS011;7090;49.436;8.490;2022-12-29T07:13:54;3.90;;;3.70;;
14030;SDS011;7090;49.436;8.490;2022-12-29T07:16:21;4.60;;;4.40;;
14030;SDS011;7090;49.436;8.490;2022-12-29T07:18:46;4.67;;;4.37;;
14030;SDS011;7090;49.436;8.490;2022-12-29T07:21:12;4.40;;;4.10;;
14030;SDS011;7090;49.436;8.490;2022-12-29T07:23:37;4.73;;;4.33;;
14030;SDS011;7090;49.436;8.490;2022-12-29T07:26:04;6.40;;;4.30;;
14030;SDS011;7090;49.436;8.490;2022-12-29T07:28:31;4.30;;;4.10;;
14030;SDS011;7090;49.436;8.490;2022-12-29T07:30:57;4.30;;;3.90;;
14030;SDS011;7090;49.436;8.490;2022-12-29T07:33:23;4.50;;;4.20;;
14030;SDS011;7090;49.436;8.490;2022-12-29T07:35:49;4.60;;;4.30;;
14030;SDS011;7090;49.436;8.490;2022-12-29T07:38:15;4.70;;;4.40;;
14030;SDS011;7090;49.436;8.490;2022-12-29T07:40:41;4.87;;;3.70;;
14030;SDS011;7090;49.436;8.490;2022-12-29T07:43:07;4.20;;;4.00;;
14030;SDS011;7090;49.436;8.490;2022-12-29T07:45:32;4.10;;;3.90;;
14030;SDS011;7090;49.436;8.490;2022-12-29T07:47:58;4.00;;;3.80;;
14030;SDS011;7090;49.436;8.490;2022-12-29T07:50:24;4.30;;;4.10;;
14030;SDS011;7090;49.436;8.490;2022-12-29T07:52:49;4.40;;;4.10;;
14030;SDS011;7090;49.436;8.490;2022-12-29T07:55:15;5.00;;;4.70;;
14030;SDS011;7090;49.436;8.490;2022-12-29T07:57:41;4.90;;;4.40;;
14030;SDS011;7090;49.436;8.490;2022-12-29T08:00:07;5.30;;;5.00;;
14030;SDS011;7090;49.436;8.490;2022-12-29T08:02:34;4.57;;;4.37;;
14030;SDS011;7090;49.436;8.490;2022-12-29T08:05:00;4.63;;;4.20;;
14030;SDS011;7090;49.436;8.490;2022-12-29T08:07:26;5.00;;;4.70;;
14030;SDS011;7090;49.436;8.490;2022-12-29T08:09:51;4.90;;;4.70;;
14030;SDS011;7090;49.436;8.490;2022-12-29T08:12:17;4.38;;;4.18;;
14030;SDS011;7090;49.436;8.490;2022-12-29T08:14:43;5.63;;;5.17;;
14030;SDS011;7090;49.436;8.490;2022-12-29T08:17:08;5.23;;;4.90;;
14030;SDS011;7090;49.436;8.490;2022-12-29T08:19:35;5.10;;;4.80;;
14030;SDS011;7090;49.436;8.490;2022-12-29T08:22:00;5.20;;;4.80;;
14030;SDS011;7090;49.436;8.490;2022-12-29T08:24:26;4.43;;;4.23;;
14030;SDS011;7090;49.436;8.490;2022-12-29T08:26:52;5.33;;;4.90;;
14030;SDS011;7090;49.436;8.490;2022-12-29T08:29:17;6.13;;;4.70;;
14030;SDS011;7090;49.436;8.490;2022-12-29T08:31:43;5.97;;;4.60;;
14030;SDS011;7090;49.436;8.490;2022-12-29T08:34:08;4.70;;;4.50;;
14030;SDS011;7090;49.436;8.490;2022-12-29T08:36:34;4.80;;;4.50;;
14030;SDS011;7090;49.436;8.490;2022-12-29T08:39:00;5.47;;;5.07;;
14030;SDS011;7090;49.436;8.490;2022-12-29T08:41:25;4.60;;;4.40;;
14030;SDS011;7090;49.436;8.490;2022-12-29T08:43:51;4.50;;;4.23;;
14030;SDS011;7090;49.436;8.490;2022-12-29T08:46:17;4.60;;;4.33;;
14030;SDS011;7090;49.436;8.490;2022-12-29T08:48:42;4.00;;;3.90;;
14030;SDS011;7090;49.436;8.490;2022-12-29T08:51:08;4.70;;;4.40;;
14030;SDS011;7090;49.436;8.490;2022-12-29T08:53:34;4.37;;;4.07;;
14030;SDS011;7090;49.436;8.490;2022-12-29T08:55:59;4.03;;;3.70;;
14030;SDS011;7090;49.436;8.490;2022-12-29T08:58:26;4.77;;;4.33;;
14030;SDS011;7090;49.436;8.490;2022-12-29T09:00:53;4.30;;;4.10;;
14030;SDS011;7090;49.436;8.490;2022-12-29T09:03:19;4.80;;;4.60;;
14030;SDS011;7090;49.436;8.490;2022-12-29T09:05:52;4.30;;;4.10;;
14030;SDS011;7090;49.436;8.490;2022-12-29T09:08:18;5.00;;;4.60;;
14030;SDS011;7090;49.436;8.490;2022-12-29T09:10:44;4.50;;;4.20;;
14030;SDS011;7090;49.436;8.490;2022-12-29T09:13:10;4.40;;;4.20;;
14030;SDS011;7090;49.436;8.490;2022-12-29T09:15:37;3.93;;;3.73;;
14030;SDS011;7090;49.436;8.490;2022-12-29T09:18:03;4.67;;;4.27;;
14030;SDS011;7090;49.436;8.490;2022-12-29T09:20:29;4.80;;;4.50;;
14030;SDS011;7090;49.436;8.490;2022-12-29T09:22:54;4.47;;;4.20;;
14030;SDS011;7090;49.436;8.490;2022-12-29T09:25:20;4.10;;;3.90;;
14030;SDS011;7090;49.436;8.490;2022-12-29T09:27:49;4.40;;;4.10;;
14030;SDS011;7090;49.436;8.490;2022-12-29T09:30:17;4.93;;;4.57;;
14030;SDS011;7090;49.436;8.490;2022-12-29T09:32:43;4.90;;;4.40;;
14030;SDS011;7090;49.436;8.490;2022-12-29T09:35:09;4.53;;;4.27;;
14030;SDS011;7090;49.436;8.490;2022-12-29T09:37:35;4.80;;;4.55;;
14030;SDS011;7090;49.436;8.490;2022-12-29T09:40:00;7.65;;;4.55;;
14030;SDS011;7090;49.436;8.490;2022-12-29T09:42:39;4.50;;;4.20;;
14030;SDS011;7090;49.436;8.490;2022-12-29T09:45:17;5.37;;;4.40;;
14030;SDS011;7090;49.436;8.490;2022-12-29T09:47:55;4.80;;;4.37;;
14030;SDS011;7090;49.436;8.490;2022-12-29T09:50:25;4.50;;;4.20;;
14030;SDS011;7090;49.436;8.490;2022-12-29T09:53:03;4.57;;;4.23;;
14030;SDS011;7090;49.436;8.490;2022-12-29T09:58:26;5.20;;;4.80;;
14030;SDS011;7090;49.436;8.490;2022-12-29T10:00:58;4.53;;;4.23;;
14030;SDS011;7090;49.436;8.490;2022-12-29T10:03:35;4.53;;;4.33;;
14030;SDS011;7090;49.436;8.490;2022-12-29T10:06:18;5.07;;;4.57;;
14030;SDS011;7090;49.436;8.490;2022-12-29T10:23:02;4.90;;;4.50;;
14030;SDS011;7090;49.436;8.490;2022-12-29T10:25:40;5.47;;;4.97;;
14030;SDS011;7090;49.436;8.490;2022-12-29T10:30:48;4.80;;;4.60;;
14030;SDS011;7090;49.436;8.490;2022-12-29T10:33:22;5.10;;;4.73;;
14030;SDS011;7090;49.436;8.490;2022-12-29T10:35:51;4.90;;;4.60;;
14030;SDS011;7090;49.436;8.490;2022-12-29T10:41:02;3.83;;;3.72;;
14030;SDS011;7090;49.436;8.490;2022-12-29T10:43:30;4.43;;;4.22;;
14030;SDS011;7090;49.436;8.490;2022-12-29T10:46:32;5.00;;;4.70;;
14030;SDS011;7090;49.436;8.490;2022-12-29T10:49:00;4.93;;;4.73;;
14030;SDS011;7090;49.436;8.490;2022-12-29T10:51:30;5.40;;;5.00;;
14030;SDS011;7090;49.436;8.490;2022-12-29T10:56:40;5.50;;;5.20;;
14030;SDS011;7090;49.436;8.490;2022-12-29T10:59:15;5.50;;;5.20;;
14030;SDS011;7090;49.436;8.490;2022-12-29T11:02:35;5.20;;;5.00;;
14030;SDS011;7090;49.436;8.490;2022-12-29T11:07:15;5.72;;;5.25;;
14030;SDS011;7090;49.436;8.490;2022-12-29T11:09:43;5.70;;;5.20;;
14030;SDS011;7090;49.436;8.490;2022-12-29T11:14:45;5.53;;;5.22;;
14030;SDS011;7090;49.436;8.490;2022-12-29T11:17:14;5.28;;;4.97;;
14030;SDS011;7090;49.436;8.490;2022-12-29T11:19:42;5.63;;;5.22;;
14030;SDS011;7090;49.436;8.490;2022-12-29T11:22:19;5.28;;;4.97;;
14030;SDS011;7090;49.436;8.490;2022-12-29T11:24:49;5.60;;;5.10;;
14030;SDS011;7090;49.436;8.490;2022-12-29T11:27:20;5.28;;;4.88;;
14030;SDS011;7090;49.436;8.490;2022-12-29T11:29:48;4.10;;;4.00;;
14030;SDS011;7090;49.436;8.490;2022-12-29T11:32:25;4.53;;;4.22;;
14030;SDS011;7090;49.436;8.490;2022-12-29T11:34:54;4.65;;;4.35;;
14030;SDS011;7090;49.436;8.490;2022-12-29T11:42:23;4.95;;;4.68;;
14030;SDS011;7090;49.436;8.490;2022-12-29T11:44:58;4.55;;;4.35;;
14030;SDS011;7090;49.436;8.490;2022-12-29T11:47:31;4.80;;;4.50;;
14030;SDS011;7090;49.436;8.490;2022-12-29T11:49:59;6.85;;;4.85;;
14030;SDS011;7090;49.436;8.490;2022-12-29T11:52:27;4.50;;;4.30;;
14030;SDS011;7090;49.436;8.490;2022-12-29T11:54:58;4.28;;;4.07;;
14030;SDS011;7090;49.436;8.490;2022-12-29T11:57:25;3.70;;;3.60;;
14030;SDS011;7090;49.436;8.490;2022-12-29T11:59:52;5.20;;;4.82;;
14030;SDS011;7090;49.436;8.490;2022-12-29T12:05:13;4.50;;;4.30;;
14030;SDS011;7090;49.436;8.490;2022-12-29T12:07:44;4.65;;;4.43;;
14030;SDS011;7090;49.436;8.490;2022-12-29T12:10:25;4.07;;;3.87;;
14030;SDS011;7090;49.436;8.490;2022-12-29T12:13:06;4.60;;;4.30;;
14030;SDS011;7090;49.436;8.490;2022-12-29T12:15:52;4.03;;;3.87;;
14030;SDS011;7090;49.436;8.490;2022-12-29T12:20:55;3.60;;;3.50;;
14030;SDS011;7090;49.436;8.490;2022-12-29T12:25:54;4.27;;;4.00;;
14030;SDS011;7090;49.436;8.490;2022-12-29T12:28:36;4.27;;;3.97;;
14030;SDS011;7090;49.436;8.490;2022-12-29T12:31:18;3.95;;;3.75;;
14030;SDS011;7090;49.436;8.490;2022-12-29T12:33:59;4.65;;;4.30;;
14030;SDS011;7090;49.436;8.490;2022-12-29T12:42:12;4.40;;;4.20;;
14030;SDS011;7090;49.436;8.490;2022-12-29T12:47:33;4.40;;;4.20;;
14030;SDS011;7090;49.436;8.490;2022-12-29T12:52:43;4.30;;;4.00;;
14030;SDS011;7090;49.436;8.490;2022-12-29T12:55:38;4.40;;;4.20;;
14030;SDS011;7090;49.436;8.490;2022-12-29T13:16:53;4.67;;;4.47;;
14030;SDS011;7090;49.436;8.490;2022-12-29T13:19:34;4.75;;;4.50;;
14030;SDS011;7090;49.436;8.490;2022-12-29T13:25:04;4.32;;;4.13;;
14030;SDS011;7090;49.436;8.490;2022-12-29T13:36:25;4.40;;;4.18;;
14030;SDS011;7090;49.436;8.490;2022-12-29T13:39:03;4.20;;;4.00;;
14030;SDS011;7090;49.436;8.490;2022-12-29T13:41:37;6.07;;;4.30;;
14030;SDS011;7090;49.436;8.490;2022-12-29T13:44:09;4.37;;;4.20;;
14030;SDS011;7090;49.436;8.490;2022-12-29T13:46:40;4.27;;;4.07;;
14030;SDS011;7090;49.436;8.490;2022-12-29T13:49:16;4.37;;;4.17;;
14030;SDS011;7090;49.436;8.490;2022-12-29T14:00:15;5.17;;;4.90;;
14030;SDS011;7090;49.436;8.490;2022-12-29T14:02:50;4.50;;;4.30;;
14030;SDS011;7090;49.436;8.490;2022-12-29T14:07:47;4.80;;;4.60;;
14030;SDS011;7090;49.436;8.490;2022-12-29T14:10:26;5.10;;;4.90;;
14030;SDS011;7090;49.436;8.490;2022-12-29T14:15:29;5.20;;;4.90;;
14030;SDS011;7090;49.436;8.490;2022-12-29T14:21:09;4.70;;;4.50;;
14030;SDS011;7090;49.436;8.490;2022-12-29T14:23:47;4.20;;;4.10;;
14030;SDS011;7090;49.436;8.490;2022-12-29T14:28:55;4.90;;;4.70;;
14030;SDS011;7090;49.436;8.490;2022-12-29T14:39:33;5.73;;;5.53;;
14030;SDS011;7090;49.436;8.490;2022-12-29T14:42:05;5.77;;;5.57;;
14030;SDS011;7090;49.436;8.490;2022-12-29T14:44:31;5.60;;;5.40;;
14030;SDS011;7090;49.436;8.490;2022-12-29T14:46:59;6.37;;;5.77;;
14030;SDS011;7090;49.436;8.490;2022-12-29T14:49:31;6.20;;;5.90;;
14030;SDS011;7090;49.436;8.490;2022-12-29T14:52:06;5.70;;;5.40;;
14030;SDS011;7090;49.436;8.490;2022-12-29T14:54:43;5.30;;;5.10;;
14030;SDS011;7090;49.436;8.490;2022-12-29T14:57:17;4.80;;;4.50;;
14030;SDS011;7090;49.436;8.490;2022-12-29T14:59:58;4.10;;;4.00;;
14030;SDS011;7090;49.436;8.490;2022-12-29T15:02:36;4.80;;;4.40;;
14030;SDS011;7090;49.436;8.490;2022-12-29T15:05:10;5.40;;;4.90;;
14030;SDS011;7090;49.436;8.490;2022-12-29T15:07:49;6.40;;;5.53;;
14030;SDS011;7090;49.436;8.490;2022-12-29T15:10:15;5.47;;;5.10;;
14030;SDS011;7090;49.436;8.490;2022-12-29T15:12:48;4.60;;;4.50;;
14030;SDS011;7090;49.436;8.490;2022-12-29T15:17:47;4.40;;;4.30;;
14030;SDS011;7090;49.436;8.490;2022-12-29T15:20:23;5.07;;;4.77;;
14030;SDS011;7090;49.436;8.490;2022-12-29T15:22:52;5.13;;;4.93;;
14030;SDS011;7090;49.436;8.490;2022-12-29T15:25:22;4.80;;;4.60;;
14030;SDS011;7090;49.436;8.490;2022-12-29T15:27:50;4.80;;;4.50;;
14030;SDS011;7090;49.436;8.490;2022-12-29T15:30:18;4.80;;;4.60;;
14030;SDS011;7090;49.436;8.490;2022-12-29T15:32:45;4.70;;;4.40;;
14030;SDS011;7090;49.436;8.490;2022-12-29T15:37:52;4.50;;;4.30;;
14030;SDS011;7090;49.436;8.490;2022-12-29T15:40:28;4.90;;;4.70;;
14030;SDS011;7090;49.436;8.490;2022-12-29T15:43:06;5.00;;;4.80;;
14030;SDS011;7090;49.436;8.490;2022-12-29T15:45:53;4.57;;;4.47;;
14030;SDS011;7090;49.436;8.490;2022-12-29T15:48:21;4.43;;;4.33;;
14030;SDS011;7090;49.436;8.490;2022-12-29T15:50:48;4.80;;;4.50;;
14030;SDS011;7090;49.436;8.490;2022-12-29T15:55:56;4.70;;;4.60;;
14030;SDS011;7090;49.436;8.490;2022-12-29T15:58:26;5.10;;;4.83;;
14030;SDS011;7090;49.436;8.490;2022-12-29T16:00:58;4.70;;;4.60;;
14030;SDS011;7090;49.436;8.490;2022-12-29T16:03:25;5.40;;;5.10;;
14030;SDS011;7090;49.436;8.490;2022-12-29T16:06:36;4.30;;;4.20;;
14030;SDS011;7090;49.436;8.490;2022-12-29T16:09:00;4.47;;;4.30;;
14030;SDS011;7090;49.436;8.490;2022-12-29T16:11:30;4.13;;;3.97;;
14030;SDS011;7090;49.436;8.490;2022-12-29T16:14:15;4.77;;;4.57;;
14030;SDS011;7090;49.436;8.490;2022-12-29T16:16:43;4.90;;;4.60;;
14030;SDS011;7090;49.436;8.490;2022-12-29T16:19:17;4.17;;;4.07;;
14030;SDS011;7090;49.436;8.490;2022-12-29T16:22:12;5.07;;;4.80;;
14030;SDS011;7090;49.436;8.490;2022-12-29T16:24:44;4.87;;;4.67;;
14030;SDS011;7090;49.436;8.490;2022-12-29T16:27:20;4.60;;;4.50;;
14030;SDS011;7090;49.436;8.490;2022-12-29T16:29:52;4.37;;;4.27;;
14030;SDS011;7090;49.436;8.490;2022-12-29T16:35:02;5.13;;;4.70;;
14030;SDS011;7090;49.436;8.490;2022-12-29T16:37:35;4.50;;;4.30;;
14030;SDS011;7090;49.436;8.490;2022-12-29T16:43:01;4.67;;;4.40;;
14030;SDS011;7090;49.436;8.490;2022-12-29T16:46:11;4.30;;;4.20;;
14030;SDS011;7090;49.436;8.490;2022-12-29T16:48:24;4.50;;;4.30;;
14030;SDS011;7090;49.436;8.490;2022-12-29T16:50:50;4.37;;;4.10;;
14030;SDS011;7090;49.436;8.490;2022-12-29T16:53:20;4.07;;;3.87;;
14030;SDS011;7090;49.436;8.490;2022-12-29T16:55:52;3.80;;;3.70;;
14030;SDS011;7090;49.436;8.490;2022-12-29T16:58:20;4.43;;;4.13;;
14030;SDS011;7090;49.436;8.490;2022-12-29T17:00:48;3.80;;;3.70;;
14030;SDS011;7090;49.436;8.490;2022-12-29T17:03:14;4.00;;;3.80;;
14030;SDS011;7090;49.436;8.490;2022-12-29T17:05:40;3.90;;;3.70;;
14030;SDS011;7090;49.436;8.490;2022-12-29T17:08:19;3.85;;;3.58;;
14030;SDS011;7090;49.436;8.490;2022-12-29T17:10:52;3.53;;;3.33;;
14030;SDS011;7090;49.436;8.490;2022-12-29T17:13:38;4.27;;;4.07;;
14030;SDS011;7090;49.436;8.490;2022-12-29T17:16:05;3.90;;;3.70;;
14030;SDS011;7090;49.436;8.490;2022-12-29T17:18:32;3.67;;;3.57;;
14030;SDS011;7090;49.436;8.490;2022-12-29T17:20:58;4.73;;;4.33;;
14030;SDS011;7090;49.436;8.490;2022-12-29T17:23:24;3.53;;;3.33;;
14030;SDS011;7090;49.436;8.490;2022-12-29T17:25:50;3.57;;;3.30;;
14030;SDS011;7090;49.436;8.490;2022-12-29T17:28:18;4.07;;;3.63;;
14030;SDS011;7090;49.436;8.490;2022-12-29T17:30:47;2.90;;;2.80;;
14030;SDS011;7090;49.436;8.490;2022-12-29T17:33:14;3.97;;;3.77;;
14030;SDS011;7090;49.436;8.490;2022-12-29T17:35:44;3.10;;;3.00;;
14030;SDS011;7090;49.436;8.490;2022-12-29T17:38:34;3.33;;;3.23;;
14030;SDS011;7090;49.436;8.490;2022-12-29T17:40:59;4.53;;;3.67;;
14030;SDS011;7090;49.436;8.490;2022-12-29T17:43:25;3.70;;;3.50;;
14030;SDS011;7090;49.436;8.490;2022-12-29T17:45:52;3.70;;;3.50;;
14030;SDS011;7090;49.436;8.490;2022-12-29T17:48:19;4.33;;;4.03;;
14030;SDS011;7090;49.436;8.490;2022-12-29T17:50:46;4.33;;;3.93;;
14030;SDS011;7090;49.436;8.490;2022-12-29T17:53:14;3.37;;;2.80;;
14030;SDS011;7090;49.436;8.490;2022-12-29T17:55:45;3.90;;;3.70;;
14030;SDS011;7090;49.436;8.490;2022-12-29T17:58:21;3.80;;;3.50;;
14030;SDS011;7090;49.436;8.490;2022-12-29T18:00:48;3.70;;;3.40;;
14030;SDS011;7090;49.436;8.490;2022-12-29T18:03:17;7.30;;;3.90;;